Van Buren Township, Michigan
Current Conditions -  °F | °C
As of 9:53 AM on Sunday 23 Nov 2014 (Local Time) from KYIP Reporting Station
Light Rain Light Rain  
Wind Chill: 43°   Ceiling: 4300
Heat Index: 48°   Visibility: 3mi
Dew Point: 43°   Wind: 10mph
Humidity: 83%   Direction: 180°S
Pressure: 29.95"   Gusts: NA
Location:  42.1781°N, 83.4854°W
Report Text: KYIP 231453Z 18009KT 3SM -RA OVC043 09/06 A2995 RMK AO2 RAB1357 SLP141 P0002 60002 T00890061 53002
Loading
Personal Weather Stations






























Interactive Weather Map New forecast layout! Learn more

10-Day Weather Forecast

Advertisements
Track Severe Weather on mobile